< < Back
Terminal Aerodrome Forecast


Current Version              Previous Versions:   1  2  3  4  5  6  7  8  9  

Terminal Aerodrome Forecast

349
FTUS44 KMOB 010538
TAFMOB
TAF
KMOB 010538Z 0106/0206 36005KT P6SM FEW050 SCT250
     FM012000 03008KT P6SM SCT060 SCT250
      TEMPO 0120/0124 P6SM TS BKN050CB=

Latest METAR

766
SAUS80 KWBC 020400 RRA
MTRMOB
METAR KMOB 020356Z 33004KT 10SM FEW250 25/19 A2990 RMK AO2 SLP120
T02500194


USA.gov is the U.S. government's official web portal to all federal, state and local government web resources and services.